Time;durP1;ratioP1;P1;durP2;ratioP2;P2;SDS_P1;SDS_P2;PMS_P1;PMS_P2;Temp;Humidity;BMP_temperature;BMP_pressure;BME280_temperature;BME280_humidity;BME280_pressure;Samples;Min_cycle;Max_cycle;Signal;HPM_P1;HPM_P2
2021/06/26 00:00:21;;;;;;;5.63;1.30;;;;;;;;;;5013433;28;20427;-56
2021/06/26 00:02:47;;;;;;;6.20;2.67;;;;;;;;;;5013472;28;20057;-56
2021/06/26 00:05:14;;;;;;;4.40;1.40;;;;;;;;;;4995790;28;20022;-56
2021/06/26 00:07:41;;;;;;;2.07;0.90;;;;;;;;;;5013234;28;20057;-56
2021/06/26 00:10:09;;;;;;;1.47;0.87;;;;;;;;;;5013301;28;20100;-56
2021/06/26 00:12:36;;;;;;;2.03;1.00;;;;;;;;;;5013203;28;20080;-56
2021/06/26 00:15:03;;;;;;;4.80;1.10;;;;;;;;;;5013275;28;20034;-56
2021/06/26 00:17:29;;;;;;;2.17;0.87;;;;;;;;;;5013177;28;20481;-56
2021/06/26 00:19:57;;;;;;;3.03;0.90;;;;;;;;;;5013139;28;20120;-56
2021/06/26 00:22:24;;;;;;;2.70;0.80;;;;;;;;;;5013080;28;20040;-56
2021/06/26 00:24:51;;;;;;;7.67;1.10;;;;;;;;;;5013199;28;20022;-56
2021/06/26 00:27:18;;;;;;;2.47;0.90;;;;;;;;;;5012996;28;20041;-56
2021/06/26 00:29:44;;;;;;;3.17;0.97;;;;;;;;;;5013169;28;20104;-56
2021/06/26 00:32:11;;;;;;;2.00;0.70;;;;;;;;;;5013119;28;20036;-56
2021/06/26 00:34:38;;;;;;;2.00;0.90;;;;;;;;;;5012983;28;20261;-56
2021/06/26 00:37:05;;;;;;;1.90;0.83;;;;;;;;;;5012934;28;20537;-56
2021/06/26 00:39:31;;;;;;;2.27;1.00;;;;;;;;;;5012890;28;20038;-56
2021/06/26 00:41:58;;;;;;;3.00;1.00;;;;;;;;;;5012843;28;20032;-56
2021/06/26 00:44:28;;;;;;;2.77;1.00;;;;;;;;;;5012871;28;20030;-56
2021/06/26 00:46:55;;;;;;;5.63;1.33;;;;;;;;;;5012852;28;20053;-57
2021/06/26 00:49:22;;;;;;;3.53;1.27;;;;;;;;;;5012796;28;20500;-57
2021/06/26 00:51:49;;;;;;;4.03;1.03;;;;;;;;;;5014127;28;20045;-57
2021/06/26 00:54:16;;;;;;;3.53;0.93;;;;;;;;;;5012751;28;20030;-57
2021/06/26 00:56:43;;;;;;;2.23;1.00;;;;;;;;;;5013804;28;20026;-57
2021/06/26 00:59:10;;;;;;;3.30;1.30;;;;;;;;;;5017139;28;20022;-58
2021/06/26 01:01:36;;;;;;;4.73;1.40;;;;;;;;;;5016713;28;20389;-58
2021/06/26 01:04:03;;;;;;;2.37;1.30;;;;;;;;;;5017106;28;20056;-58
2021/06/26 01:06:30;;;;;;;3.63;1.10;;;;;;;;;;5016685;28;20037;-58
2021/06/26 01:08:57;;;;;;;5.70;1.30;;;;;;;;;;5016533;28;20033;-57
2021/06/26 01:11:23;;;;;;;3.20;1.63;;;;;;;;;;5017049;28;20029;-58
2021/06/26 01:13:50;;;;;;;3.17;1.50;;;;;;;;;;5016658;28;20104;-58
2021/06/26 01:16:17;;;;;;;6.77;1.90;;;;;;;;;;5016398;28;20496;-58
2021/06/26 01:18:44;;;;;;;5.20;1.90;;;;;;;;;;5016427;28;20381;-58
2021/06/26 01:21:11;;;;;;;2.50;1.37;;;;;;;;;;5016310;28;20057;-57
2021/06/26 01:23:45;;;;;;;2.63;1.20;;;;;;;;;;5016262;28;20397;-57
2021/06/26 01:26:12;;;;;;;5.93;1.00;;;;;;;;;;5016702;28;20041;-57
2021/06/26 01:28:39;;;;;;;5.40;1.07;;;;;;;;;;5016274;28;20028;-57
2021/06/26 01:31:06;;;;;;;3.87;1.10;;;;;;;;;;5016400;28;20049;-57
2021/06/26 01:33:33;;;;;;;1.30;0.73;;;;;;;;;;5016264;28;20029;-57
2021/06/26 01:36:00;;;;;;;13.63;1.73;;;;;;;;;;5016125;28;20022;-57
2021/06/26 01:38:27;;;;;;;1.33;0.77;;;;;;;;;;5016199;28;20105;-57
2021/06/26 01:40:54;;;;;;;1.77;0.80;;;;;;;;;;5016171;28;20125;-57
2021/06/26 01:43:21;;;;;;;2.00;1.00;;;;;;;;;;5015894;28;20389;-57
2021/06/26 01:45:47;;;;;;;3.50;0.80;;;;;;;;;;5015901;28;20026;-57
2021/06/26 01:48:14;;;;;;;3.67;0.90;;;;;;;;;;5015854;28;20385;-57
2021/06/26 01:50:41;;;;;;;2.93;0.93;;;;;;;;;;5017170;28;20061;-57
2021/06/26 01:53:08;;;;;;;3.30;1.30;;;;;;;;;;5015808;28;20053;-57
2021/06/26 01:55:35;;;;;;;6.27;1.70;;;;;;;;;;5015778;28;20370;-57
2021/06/26 01:58:01;;;;;;;4.93;1.53;;;;;;;;;;5015803;28;20018;-57
2021/06/26 02:00:28;;;;;;;2.10;1.20;;;;;;;;;;5015704;28;20374;-57
2021/06/26 02:02:55;;;;;;;2.63;1.27;;;;;;;;;;5015504;28;20446;-57
2021/06/26 02:05:23;;;;;;;2.23;1.07;;;;;;;;;;5015655;28;20022;-57
2021/06/26 02:07:50;;;;;;;3.33;1.47;;;;;;;;;;5014980;28;20049;-57
2021/06/26 02:10:18;;;;;;;2.13;1.00;;;;;;;;;;5015196;28;20034;-56
2021/06/26 02:12:45;;;;;;;2.80;1.10;;;;;;;;;;5015501;28;20026;-57
2021/06/26 02:15:12;;;;;;;2.80;1.00;;;;;;;;;;5015425;28;20076;-56
2021/06/26 02:17:39;;;;;;;4.50;1.00;;;;;;;;;;5015157;28;20077;-57
2021/06/26 02:20:07;;;;;;;2.93;1.00;;;;;;;;;;5015351;28;20076;-57
2021/06/26 02:22:34;;;;;;;2.33;1.03;;;;;;;;;;5015067;28;20049;-57
2021/06/26 02:25:04;;;;;;;1.47;0.90;;;;;;;;;;5015270;28;20030;-57
2021/06/26 02:27:31;;;;;;;3.00;0.87;;;;;;;;;;5015194;28;20033;-57
2021/06/26 02:29:58;;;;;;;3.53;1.20;;;;;;;;;;5015197;28;20022;-57
2021/06/26 02:32:25;;;;;;;3.87;1.60;;;;;;;;;;5015083;28;20036;-57
2021/06/26 02:34:53;;;;;;;2.97;1.60;;;;;;;;;;5015154;28;20525;-57
2021/06/26 02:37:20;;;;;;;2.97;1.40;;;;;;;;;;5014977;28;20061;-57
2021/06/26 02:39:47;;;;;;;3.00;1.20;;;;;;;;;;5014882;28;20022;-56
2021/06/26 02:42:14;;;;;;;2.93;1.40;;;;;;;;;;5014825;28;20045;-56
2021/06/26 02:44:41;;;;;;;7.73;2.80;;;;;;;;;;5014930;28;20029;-56
2021/06/26 02:47:07;;;;;;;8.10;2.90;;;;;;;;;;5014870;28;20512;-56
2021/06/26 02:49:34;;;;;;;6.47;2.97;;;;;;;;;;5014760;28;20028;-56
2021/06/26 02:52:01;;;;;;;11.33;2.33;;;;;;;;;;5015932;28;20050;-56
2021/06/26 02:54:28;;;;;;;5.30;2.03;;;;;;;;;;5014827;28;20032;-56
2021/06/26 02:56:54;;;;;;;3.20;1.77;;;;;;;;;;5014536;28;20359;-56
2021/06/26 02:59:21;;;;;;;4.40;1.77;;;;;;;;;;5014633;28;20062;-56
2021/06/26 03:01:48;;;;;;;2.73;1.37;;;;;;;;;;5014460;28;20053;-56
2021/06/26 03:04:15;;;;;;;7.67;1.67;;;;;;;;;;5014365;28;20076;-56
2021/06/26 03:06:42;;;;;;;3.47;1.60;;;;;;;;;;5014384;28;20026;-56
2021/06/26 03:09:08;;;;;;;4.27;1.57;;;;;;;;;;5014284;28;20039;-56
2021/06/26 03:11:35;;;;;;;3.87;1.50;;;;;;;;;;5014330;28;20109;-56
2021/06/26 03:14:02;;;;;;;2.00;1.10;;;;;;;;;;5014436;28;20025;-56
2021/06/26 03:16:29;;;;;;;5.57;1.40;;;;;;;;;;5014417;28;20030;-56
2021/06/26 03:18:56;;;;;;;4.30;1.40;;;;;;;;;;5014153;28;20037;-56
2021/06/26 03:21:22;;;;;;;4.07;1.53;;;;;;;;;;5014021;28;20076;-55
2021/06/26 03:23:49;;;;;;;3.77;1.30;;;;;;;;;;5013967;28;20033;-56
2021/06/26 03:26:16;;;;;;;11.90;1.30;;;;;;;;;;5014027;28;20022;-55
2021/06/26 03:28:44;;;;;;;5.10;1.47;;;;;;;;;;5014026;28;20026;-55
2021/06/26 03:31:12;;;;;;;3.67;1.53;;;;;;;;;;5014135;28;20249;-55
2021/06/26 03:33:39;;;;;;;2.83;1.57;;;;;;;;;;5013871;28;20037;-56
2021/06/26 03:36:06;;;;;;;2.30;1.17;;;;;;;;;;5013898;28;20026;-56
2021/06/26 03:38:33;;;;;;;3.60;1.40;;;;;;;;;;5013857;28;20488;-55
2021/06/26 03:41:09;;;;;;;2.50;1.10;;;;;;;;;;5013776;28;20133;-56
2021/06/26 03:43:36;;;;;;;3.73;1.47;;;;;;;;;;5014091;28;20453;-55
2021/06/26 03:46:09;;;;;;;2.90;1.80;;;;;;;;;;5013721;28;20030;-56
2021/06/26 03:48:36;;;;;;;3.80;1.50;;;;;;;;;;5013603;28;20036;-55
2021/06/26 03:51:09;;;;;;;3.60;1.57;;;;;;;;;;5015096;28;20049;-56
2021/06/26 03:53:36;;;;;;;3.87;1.30;;;;;;;;;;5013635;28;20040;-55
2021/06/26 03:56:03;;;;;;;3.27;1.53;;;;;;;;;;5013573;28;20026;-55
2021/06/26 03:58:30;;;;;;;3.13;1.57;;;;;;;;;;5013549;28;20018;-55
2021/06/26 04:00:56;;;;;;;6.27;1.77;;;;;;;;;;5013417;28;20034;-55
2021/06/26 04:03:24;;;;;;;3.10;1.67;;;;;;;;;;5013332;28;20087;-55
2021/06/26 04:05:51;;;;;;;4.73;1.67;;;;;;;;;;5013504;28;20022;-55
2021/06/26 04:08:18;;;;;;;4.97;1.93;;;;;;;;;;5013341;28;20037;-55
2021/06/26 04:10:45;;;;;;;5.80;1.80;;;;;;;;;;5013365;28;20381;-55
2021/06/26 04:13:11;;;;;;;5.07;2.13;;;;;;;;;;5013270;28;20405;-55
2021/06/26 04:15:38;;;;;;;6.30;2.57;;;;;;;;;;5013373;28;20029;-55
2021/06/26 04:18:05;;;;;;;9.47;3.13;;;;;;;;;;5013114;28;20030;-55
2021/06/26 04:20:32;;;;;;;5.00;2.40;;;;;;;;;;5013227;28;20029;-55
2021/06/26 04:22:59;;;;;;;3.83;1.87;;;;;;;;;;5013010;28;20033;-55
2021/06/26 04:25:27;;;;;;;4.50;1.93;;;;;;;;;;5013113;28;20109;-55
2021/06/26 04:27:54;;;;;;;5.43;2.40;;;;;;;;;;5013134;28;20116;-55
2021/06/26 04:30:21;;;;;;;6.77;2.17;;;;;;;;;;5013018;28;20110;-55
2021/06/26 04:32:48;;;;;;;3.10;1.53;;;;;;;;;;5012401;28;20021;-53
2021/06/26 04:35:19;;;;;;;5.03;1.73;;;;;;;;;;5013147;28;20041;-53
2021/06/26 04:37:46;;;;;;;8.47;2.97;;;;;;;;;;5012974;28;20049;-53
2021/06/26 04:40:13;;;;;;;5.60;1.63;;;;;;;;;;5013084;28;20028;-53
2021/06/26 04:42:40;;;;;;;6.60;1.40;;;;;;;;;;5012933;28;20041;-53
2021/06/26 04:45:07;;;;;;;4.93;1.77;;;;;;;;;;5013278;28;20053;-53
2021/06/26 04:47:34;;;;;;;5.97;1.27;;;;;;;;;;5012896;28;20552;-53
2021/06/26 04:50:00;;;;;;;2.23;1.30;;;;;;;;;;5012776;28;20024;-53
2021/06/26 04:52:27;;;;;;;7.17;1.53;;;;;;;;;;4996922;28;20054;-53
2021/06/26 04:54:54;;;;;;;2.10;1.10;;;;;;;;;;5012885;28;20076;-53
2021/06/26 04:57:21;;;;;;;7.30;1.50;;;;;;;;;;5012605;28;20029;-53
2021/06/26 04:59:48;;;;;;;2.87;1.50;;;;;;;;;;5012664;28;20022;-53
2021/06/26 05:02:14;;;;;;;3.47;1.50;;;;;;;;;;5012632;28;20085;-53
2021/06/26 05:04:41;;;;;;;2.07;1.10;;;;;;;;;;5012728;28;20026;-53
2021/06/26 05:07:08;;;;;;;3.37;0.97;;;;;;;;;;5012668;28;20030;-53
2021/06/26 05:09:35;;;;;;;2.73;1.10;;;;;;;;;;5012506;28;20479;-53
2021/06/26 05:12:02;;;;;;;1.87;1.10;;;;;;;;;;4995417;28;20030;-53
2021/06/26 05:14:29;;;;;;;6.57;1.40;;;;;;;;;;5012645;28;20381;-53
2021/06/26 05:16:56;;;;;;;1.50;1.00;;;;;;;;;;5012658;28;20029;-53
2021/06/26 05:19:23;;;;;;;5.93;1.10;;;;;;;;;;5012603;28;20096;-53
2021/06/26 05:21:50;;;;;;;4.03;1.13;;;;;;;;;;5012507;28;20030;-53
2021/06/26 05:24:17;;;;;;;5.67;1.10;;;;;;;;;;5012654;28;20044;-53
2021/06/26 05:26:44;;;;;;;3.33;1.20;;;;;;;;;;5012425;28;20048;-53
2021/06/26 05:29:11;;;;;;;6.53;1.53;;;;;;;;;;5012518;28;20040;-53
2021/06/26 05:31:38;;;;;;;3.40;1.50;;;;;;;;;;5012490;28;20030;-53
2021/06/26 05:34:05;;;;;;;4.17;1.50;;;;;;;;;;5012529;28;20029;-53
2021/06/26 05:36:32;;;;;;;4.90;1.17;;;;;;;;;;5012450;28;20030;-53
2021/06/26 05:39:01;;;;;;;7.10;1.70;;;;;;;;;;5012528;28;20056;-53
2021/06/26 05:41:28;;;;;;;3.60;1.43;;;;;;;;;;5012404;28;20076;-53
2021/06/26 05:43:55;;;;;;;2.70;1.07;;;;;;;;;;5014899;28;20041;-53
2021/06/26 05:46:22;;;;;;;3.77;1.50;;;;;;;;;;5015941;28;20021;-53
2021/06/26 05:48:49;;;;;;;3.23;1.30;;;;;;;;;;5015880;28;20033;-53
2021/06/26 05:51:18;;;;;;;4.93;1.57;;;;;;;;;;5017305;28;20128;-52
2021/06/26 05:53:45;;;;;;;4.27;1.43;;;;;;;;;;5015883;28;20036;-53
2021/06/26 05:56:12;;;;;;;5.90;1.30;;;;;;;;;;5015718;28;20101;-53
2021/06/26 05:58:39;;;;;;;2.67;1.43;;;;;;;;;;5015616;28;20033;-53
2021/06/26 06:01:06;;;;;;;4.87;1.37;;;;;;;;;;5015753;28;20021;-52
2021/06/26 06:03:35;;;;;;;4.83;1.37;;;;;;;;;;5015595;28;20045;-53
2021/06/26 06:06:02;;;;;;;4.87;1.40;;;;;;;;;;5015720;28;20053;-53
2021/06/26 06:08:29;;;;;;;4.23;1.13;;;;;;;;;;5015386;28;20362;-53
2021/06/26 06:10:56;;;;;;;3.50;1.30;;;;;;;;;;5015522;28;20113;-53
2021/06/26 06:13:23;;;;;;;2.67;1.30;;;;;;;;;;5015480;28;20022;-53
2021/06/26 06:15:50;;;;;;;4.83;0.90;;;;;;;;;;5015484;28;20022;-53
2021/06/26 06:18:18;;;;;;;4.47;1.30;;;;;;;;;;5015279;28;20279;-53
2021/06/26 06:20:45;;;;;;;5.33;0.90;;;;;;;;;;5015267;28;20113;-53
2021/06/26 06:23:11;;;;;;;4.47;1.00;;;;;;;;;;5015118;28;20049;-53
2021/06/26 06:25:38;;;;;;;1.33;1.00;;;;;;;;;;5015218;28;20478;-53
2021/06/26 06:28:05;;;;;;;3.70;1.43;;;;;;;;;;5015083;28;20022;-53
2021/06/26 06:30:35;;;;;;;4.13;0.97;;;;;;;;;;5015092;28;20091;-53
2021/06/26 06:33:03;;;;;;;2.37;1.00;;;;;;;;;;5015046;28;20069;-53
2021/06/26 06:35:30;;;;;;;4.73;1.13;;;;;;;;;;5014973;28;20022;-53
2021/06/26 06:37:56;;;;;;;7.03;1.00;;;;;;;;;;5014953;28;20033;-53
2021/06/26 06:40:23;;;;;;;2.77;1.23;;;;;;;;;;5015012;28;20101;-53
2021/06/26 06:42:50;;;;;;;1.40;0.90;;;;;;;;;;5014902;28;20048;-53
2021/06/26 06:45:17;;;;;;;6.67;1.40;;;;;;;;;;5014864;28;20022;-53
2021/06/26 06:47:44;;;;;;;6.07;1.30;;;;;;;;;;5014695;28;20033;-53
2021/06/26 06:50:12;;;;;;;4.60;1.40;;;;;;;;;;5014805;28;20448;-53
2021/06/26 06:52:39;;;;;;;5.50;1.33;;;;;;;;;;5015959;28;20405;-53
2021/06/26 06:55:07;;;;;;;3.83;1.30;;;;;;;;;;5014135;28;20045;-53
2021/06/26 06:57:34;;;;;;;5.23;1.53;;;;;;;;;;5014561;28;20040;-53
2021/06/26 07:00:01;;;;;;;1.60;0.97;;;;;;;;;;5014611;28;20014;-53
2021/06/26 07:02:28;;;;;;;2.37;1.10;;;;;;;;;;5014488;28;20201;-53
2021/06/26 07:04:54;;;;;;;3.87;1.13;;;;;;;;;;5014531;28;20068;-53
2021/06/26 07:07:21;;;;;;;6.73;1.17;;;;;;;;;;5014501;28;20025;-53
2021/06/26 07:09:48;;;;;;;4.17;1.30;;;;;;;;;;5014424;28;20018;-53
2021/06/26 07:12:15;;;;;;;1.67;1.03;;;;;;;;;;5014291;28;20022;-53
2021/06/26 07:14:41;;;;;;;5.63;1.17;;;;;;;;;;5014410;28;20018;-53
2021/06/26 07:17:08;;;;;;;1.93;1.20;;;;;;;;;;5014224;28;20034;-53
2021/06/26 07:19:35;;;;;;;5.10;1.20;;;;;;;;;;5014300;28;20062;-53
2021/06/26 07:22:03;;;;;;;4.07;1.10;;;;;;;;;;5014155;28;20029;-53
2021/06/26 07:24:29;;;;;;;1.97;1.30;;;;;;;;;;5014177;28;20108;-54
2021/06/26 07:26:56;;;;;;;3.43;1.13;;;;;;;;;;5013959;28;20032;-53
2021/06/26 07:29:23;;;;;;;3.10;1.40;;;;;;;;;;5013990;28;20028;-59
2021/06/26 07:31:50;;;;;;;1.57;1.00;;;;;;;;;;5014019;28;20018;-53
2021/06/26 07:34:17;;;;;;;4.80;1.57;;;;;;;;;;5013940;28;20030;-53
2021/06/26 07:36:44;;;;;;;4.57;1.20;;;;;;;;;;5013822;28;20464;-52
2021/06/26 07:39:10;;;;;;;1.40;0.90;;;;;;;;;;5013902;28;20021;-53
2021/06/26 07:41:37;;;;;;;4.43;1.50;;;;;;;;;;5013868;28;20379;-53
2021/06/26 07:44:04;;;;;;;3.80;1.20;;;;;;;;;;5013691;28;20500;-53
2021/06/26 07:46:31;;;;;;;2.77;1.20;;;;;;;;;;5013755;28;20030;-53
2021/06/26 07:48:58;;;;;;;5.03;1.10;;;;;;;;;;5013644;28;20038;-53
2021/06/26 07:51:24;;;;;;;1.70;1.20;;;;;;;;;;5014930;28;20061;-53
2021/06/26 07:53:51;;;;;;;4.00;2.13;;;;;;;;;;5013716;28;20061;-53
2021/06/26 07:56:18;;;;;;;4.67;1.00;;;;;;;;;;5013481;28;20099;-53
2021/06/26 07:58:45;;;;;;;6.73;1.20;;;;;;;;;;5013640;28;20056;-53
2021/06/26 08:01:12;;;;;;;3.23;2.07;;;;;;;;;;5013576;28;20113;-53
2021/06/26 08:03:38;;;;;;;3.93;1.07;;;;;;;;;;5013337;28;20038;-53
2021/06/26 08:06:05;;;;;;;3.63;1.20;;;;;;;;;;5012688;28;20060;-53
2021/06/26 08:08:32;;;;;;;4.30;1.47;;;;;;;;;;5013253;28;20534;-52
2021/06/26 08:10:59;;;;;;;2.93;1.40;;;;;;;;;;5013505;28;20055;-53
2021/06/26 08:13:25;;;;;;;3.23;1.10;;;;;;;;;;5013265;28;20465;-52
2021/06/26 08:15:52;;;;;;;3.73;1.03;;;;;;;;;;5013315;28;20040;-53
2021/06/26 08:18:19;;;;;;;1.23;0.90;;;;;;;;;;5013216;28;20032;-53
2021/06/26 08:20:46;;;;;;;2.83;1.10;;;;;;;;;;5013181;28;20030;-53
2021/06/26 08:23:13;;;;;;;1.63;1.00;;;;;;;;;;5013198;28;20462;-53
2021/06/26 08:25:40;;;;;;;1.97;1.00;;;;;;;;;;5013089;28;20037;-52
2021/06/26 08:28:07;;;;;;;7.53;1.17;;;;;;;;;;5013062;28;20439;-53
2021/06/26 08:30:34;;;;;;;2.40;1.10;;;;;;;;;;5013054;28;20109;-53
2021/06/26 08:33:01;;;;;;;3.37;1.50;;;;;;;;;;5013088;28;20026;-53
2021/06/26 08:35:27;;;;;;;5.73;1.30;;;;;;;;;;5012995;28;20026;-52
2021/06/26 08:37:54;;;;;;;2.40;1.10;;;;;;;;;;5012971;28;20055;-53
2021/06/26 08:40:22;;;;;;;6.83;1.20;;;;;;;;;;5013038;28;20101;-52
2021/06/26 08:42:50;;;;;;;6.40;1.67;;;;;;;;;;5012896;28;20108;-53
2021/06/26 08:45:19;;;;;;;6.03;1.60;;;;;;;;;;5013040;28;20478;-53
2021/06/26 08:47:47;;;;;;;3.23;1.20;;;;;;;;;;5012779;28;20109;-53
2021/06/26 08:50:14;;;;;;;3.13;1.03;;;;;;;;;;5012867;28;20030;-53
2021/06/26 08:52:42;;;;;;;5.60;1.17;;;;;;;;;;5014153;28;20077;-53
2021/06/26 08:55:09;;;;;;;1.23;0.70;;;;;;;;;;5013110;28;20038;-52
2021/06/26 08:57:37;;;;;;;6.90;1.50;;;;;;;;;;5012789;28;20030;-52
2021/06/26 09:00:06;;;;;;;2.90;1.07;;;;;;;;;;5012801;28;20504;-52
2021/06/26 09:02:33;;;;;;;3.07;1.27;;;;;;;;;;5012881;28;20168;-53
2021/06/26 09:05:02;;;;;;;2.20;0.93;;;;;;;;;;5012745;28;20029;-52
2021/06/26 09:07:39;;;;;;;4.80;1.20;;;;;;;;;;5012717;28;20112;-53
2021/06/26 09:10:20;;;;;;;6.13;1.10;;;;;;;;;;5012729;28;20022;-53
2021/06/26 09:12:49;;;;;;;4.10;1.87;;;;;;;;;;5012743;28;20112;-52
2021/06/26 09:15:23;;;;;;;2.80;1.00;;;;;;;;;;5012652;28;20033;-53
2021/06/26 09:17:50;;;;;;;7.50;1.70;;;;;;;;;;5013800;28;20068;-52
2021/06/26 09:20:18;;;;;;;4.03;1.17;;;;;;;;;;5016676;28;20033;-53
2021/06/26 09:22:46;;;;;;;2.10;1.27;;;;;;;;;;5016295;28;20041;-52
2021/06/26 09:25:30;;;;;;;4.90;1.47;;;;;;;;;;5016386;28;20418;-52
2021/06/26 09:27:58;;;;;;;3.17;1.20;;;;;;;;;;5016238;28;20018;-52
2021/06/26 09:30:37;;;;;;;2.10;1.17;;;;;;;;;;5016188;28;20034;-52
2021/06/26 09:33:11;;;;;;;4.07;1.20;;;;;;;;;;5016344;28;20032;-53
2021/06/26 09:35:38;;;;;;;8.00;1.27;;;;;;;;;;5016120;28;20113;-53
2021/06/26 09:38:08;;;;;;;2.97;1.20;;;;;;;;;;5016162;28;20030;-52
2021/06/26 09:40:37;;;;;;;2.83;0.90;;;;;;;;;;5016142;28;20773;-53
2021/06/26 09:43:04;;;;;;;2.77;0.93;;;;;;;;;;5016013;28;20049;-52
2021/06/26 09:45:31;;;;;;;3.00;1.30;;;;;;;;;;5015975;28;20440;-53
2021/06/26 09:48:03;;;;;;;2.50;1.27;;;;;;;;;;5015947;28;20035;-53
2021/06/26 09:50:30;;;;;;;2.43;1.20;;;;;;;;;;5015973;28;20493;-53
2021/06/26 09:53:03;;;;;;;2.90;1.30;;;;;;;;;;5017077;28;20058;-53
2021/06/26 09:55:37;;;;;;;3.60;1.37;;;;;;;;;;5015874;28;20265;-53
2021/06/26 09:58:17;;;;;;;4.30;1.33;;;;;;;;;;5015792;28;20033;-52
2021/06/26 10:00:50;;;;;;;4.13;1.60;;;;;;;;;;5015755;28;20045;-53
2021/06/26 10:03:19;;;;;;;1.87;1.03;;;;;;;;;;5015563;28;20096;-52
2021/06/26 10:05:46;;;;;;;2.20;1.13;;;;;;;;;;5015467;28;20030;-52
2021/06/26 10:08:15;;;;;;;15.03;1.50;;;;;;;;;;5015557;28;20034;-53
2021/06/26 10:10:42;;;;;;;4.83;1.13;;;;;;;;;;5015552;28;20126;-53
2021/06/26 10:13:11;;;;;;;3.67;1.10;;;;;;;;;;5015459;28;20397;-53
2021/06/26 10:15:38;;;;;;;2.33;1.27;;;;;;;;;;5015389;28;20466;-52
2021/06/26 10:18:05;;;;;;;2.17;0.90;;;;;;;;;;5015483;28;20034;-52
2021/06/26 10:20:37;;;;;;;7.37;1.50;;;;;;;;;;5015269;28;20022;-52
2021/06/26 10:23:04;;;;;;;3.93;1.17;;;;;;;;;;5015444;28;20470;-52
2021/06/26 10:25:49;;;;;;;3.93;1.40;;;;;;;;;;5015265;28;20018;-52
2021/06/26 10:28:16;;;;;;;5.97;1.13;;;;;;;;;;5015202;28;20032;-53
2021/06/26 10:30:44;;;;;;;2.30;1.10;;;;;;;;;;5014515;28;20040;-53
2021/06/26 10:33:13;;;;;;;5.10;1.20;;;;;;;;;;5015183;28;20022;-52
2021/06/26 10:35:51;;;;;;;3.43;1.37;;;;;;;;;;5014927;28;20477;-53
2021/06/26 10:38:18;;;;;;;5.20;1.43;;;;;;;;;;5015112;28;20025;-53
2021/06/26 10:40:49;;;;;;;9.07;1.93;;;;;;;;;;5015007;28;20290;-52
2021/06/26 10:43:17;;;;;;;5.57;1.23;;;;;;;;;;4997317;28;20042;-52
2021/06/26 10:45:45;;;;;;;5.13;0.93;;;;;;;;;;5015025;28;20447;-52
2021/06/26 10:48:16;;;;;;;3.10;1.60;;;;;;;;;;5014961;28;20036;-52
2021/06/26 10:50:47;;;;;;;3.77;1.23;;;;;;;;;;5014897;28;20018;-53
2021/06/26 10:53:23;;;;;;;2.13;1.27;;;;;;;;;;5014428;28;20081;-53
2021/06/26 10:56:10;;;;;;;4.50;1.50;;;;;;;;;;5014660;28;20030;-53
2021/06/26 10:58:39;;;;;;;4.43;1.70;;;;;;;;;;5014577;28;20247;-53
2021/06/26 11:01:13;;;;;;;2.53;1.30;;;;;;;;;;5014435;28;20259;-52
2021/06/26 11:03:39;;;;;;;6.73;1.60;;;;;;;;;;5014466;28;20739;-52
2021/06/26 11:06:17;;;;;;;3.80;1.30;;;;;;;;;;5014499;28;20029;-52
2021/06/26 11:08:54;;;;;;;4.40;1.70;;;;;;;;;;5014530;28;20267;-53
2021/06/26 11:11:27;;;;;;;6.07;1.33;;;;;;;;;;5014341;28;20049;-53
2021/06/26 11:14:03;;;;;;;3.43;1.30;;;;;;;;;;5014346;28;20735;-52
2021/06/26 11:16:30;;;;;;;2.70;1.20;;;;;;;;;;5014221;28;20258;-52
2021/06/26 11:18:57;;;;;;;2.97;1.40;;;;;;;;;;5014240;28;20061;-52
2021/06/26 11:21:24;;;;;;;5.60;1.40;;;;;;;;;;5014109;28;20259;-53
2021/06/26 11:23:51;;;;;;;6.23;1.40;;;;;;;;;;5014113;28;20290;-53
2021/06/26 11:26:18;;;;;;;7.93;2.00;;;;;;;;;;5014041;28;20256;-52
2021/06/26 11:28:45;;;;;;;2.40;1.10;;;;;;;;;;5014016;28;20282;-52
2021/06/26 11:31:12;;;;;;;5.20;1.57;;;;;;;;;;5013953;28;20664;-52
2021/06/26 11:33:40;;;;;;;10.00;1.73;;;;;;;;;;5013936;28;20622;-52
2021/06/26 11:36:11;;;;;;;2.23;1.30;;;;;;;;;;5013955;28;20731;-52
2021/06/26 11:38:38;;;;;;;4.23;1.30;;;;;;;;;;5013884;28;20622;-52
2021/06/26 11:41:06;;;;;;;3.23;1.67;;;;;;;;;;5013699;28;20251;-52
2021/06/26 11:43:34;;;;;;;2.50;1.30;;;;;;;;;;5013722;28;20634;-53
2021/06/26 11:46:01;;;;;;;4.00;1.63;;;;;;;;;;5013699;28;20255;-52
2021/06/26 11:48:29;;;;;;;3.67;1.27;;;;;;;;;;5013977;28;20259;-52
2021/06/26 11:51:09;;;;;;;2.07;1.27;;;;;;;;;;5014962;28;20271;-52
2021/06/26 11:53:43;;;;;;;3.03;1.40;;;;;;;;;;5013644;28;20267;-52
2021/06/26 11:56:14;;;;;;;7.40;1.53;;;;;;;;;;5013467;28;20363;-52
2021/06/26 11:58:43;;;;;;;4.13;1.40;;;;;;;;;;5013598;28;20338;-53
2021/06/26 12:01:16;;;;;;;5.10;1.17;;;;;;;;;;5013586;28;20260;-53
2021/06/26 12:03:44;;;;;;;6.17;1.83;;;;;;;;;;5013404;28;20341;-52
2021/06/26 12:06:14;;;;;;;4.53;1.70;;;;;;;;;;5013379;28;20262;-52
2021/06/26 12:08:42;;;;;;;4.50;1.60;;;;;;;;;;5013383;28;20270;-52
2021/06/26 12:11:13;;;;;;;4.33;1.73;;;;;;;;;;5013268;28;20255;-52
2021/06/26 12:13:43;;;;;;;4.10;1.73;;;;;;;;;;5013257;28;20646;-52
2021/06/26 12:16:18;;;;;;;7.00;2.47;;;;;;;;;;5013256;28;20259;-52
2021/06/26 12:18:52;;;;;;;10.48;2.20;;;;;;;;;;5013472;28;20247;-52
2021/06/26 12:21:20;;;;;;;6.70;2.40;;;;;;;;;;5013309;28;20100;-52
2021/06/26 12:23:50;;;;;;;10.37;2.57;;;;;;;;;;5012956;28;20350;-52
2021/06/26 12:26:21;;;;;;;4.60;2.20;;;;;;;;;;5013066;28;20615;-53
2021/06/26 12:28:48;;;;;;;6.70;2.63;;;;;;;;;;5013084;28;20800;-52
2021/06/26 12:31:15;;;;;;;6.47;3.03;;;;;;;;;;5013075;28;20255;-52
2021/06/26 12:33:43;;;;;;;10.87;4.70;;;;;;;;;;5012958;28;20284;-52
2021/06/26 12:36:17;;;;;;;9.17;3.47;;;;;;;;;;5012968;28;20306;-52
2021/06/26 12:38:45;;;;;;;7.60;2.70;;;;;;;;;;4979178;28;20469;-52
2021/06/26 12:41:37;;;;;;;8.07;2.80;;;;;;;;;;5013042;28;20240;-52
2021/06/26 12:44:04;;;;;;;18.10;4.37;;;;;;;;;;5009366;28;20314;-52
2021/06/26 12:46:32;;;;;;;8.30;3.93;;;;;;;;;;5013005;28;20343;-53
2021/06/26 12:49:01;;;;;;;22.93;4.57;;;;;;;;;;5012848;28;20274;-52
2021/06/26 12:51:33;;;;;;;9.60;3.20;;;;;;;;;;4996746;28;20295;-52
2021/06/26 12:53:59;;;;;;;5.97;2.87;;;;;;;;;;5015999;28;20370;-53
2021/06/26 12:56:27;;;;;;;5.57;2.60;;;;;;;;;;5016892;28;20330;-52
2021/06/26 12:59:02;;;;;;;8.27;2.37;;;;;;;;;;5016890;28;20301;-52
2021/06/26 13:01:43;;;;;;;7.60;3.00;;;;;;;;;;5016991;28;20501;-52
2021/06/26 13:04:13;;;;;;;7.30;4.70;;;;;;;;;;5016774;28;20064;-52
2021/06/26 13:06:49;;;;;;;9.23;5.00;;;;;;;;;;5016750;28;20255;-52
2021/06/26 13:09:17;;;;;;;6.33;3.93;;;;;;;;;;5016689;28;20239;-52
2021/06/26 13:11:44;;;;;;;13.40;4.90;;;;;;;;;;5016674;28;20260;-53
2021/06/26 13:14:12;;;;;;;8.03;3.90;;;;;;;;;;5016539;28;20710;-53
2021/06/26 13:16:39;;;;;;;5.10;3.10;;;;;;;;;;5016519;28;20266;-52
2021/06/26 13:19:07;;;;;;;5.97;2.30;;;;;;;;;;5016469;28;20622;-52
2021/06/26 13:21:34;;;;;;;8.70;2.40;;;;;;;;;;5016439;28;20251;-52
2021/06/26 13:24:02;;;;;;;11.20;4.43;;;;;;;;;;5016269;28;20646;-53
2021/06/26 13:26:28;;;;;;;6.73;3.87;;;;;;;;;;5016441;28;20259;-53
2021/06/26 13:28:55;;;;;;;10.90;4.50;;;;;;;;;;5016301;28;20293;-53
2021/06/26 13:31:22;;;;;;;6.33;3.27;;;;;;;;;;5016321;28;20107;-52
2021/06/26 13:33:49;;;;;;;9.47;4.03;;;;;;;;;;5016321;28;20041;-52
2021/06/26 13:36:16;;;;;;;9.00;3.77;;;;;;;;;;5016128;28;20080;-53
2021/06/26 13:38:43;;;;;;;6.17;3.63;;;;;;;;;;5016133;28;20417;-52
2021/06/26 13:41:10;;;;;;;6.47;4.10;;;;;;;;;;5016155;28;20029;-52
2021/06/26 13:43:37;;;;;;;7.50;4.67;;;;;;;;;;5016019;28;20042;-53
2021/06/26 13:46:04;;;;;;;11.10;3.80;;;;;;;;;;5016048;28;20029;-52
2021/06/26 13:48:30;;;;;;;7.23;3.63;;;;;;;;;;5015898;28;20496;-53
2021/06/26 13:50:57;;;;;;;11.20;3.47;;;;;;;;;;5015897;28;20025;-53
2021/06/26 13:53:24;;;;;;;6.07;2.90;;;;;;;;;;5017259;28;20058;-53
2021/06/26 13:55:51;;;;;;;6.17;3.07;;;;;;;;;;5015874;28;20029;-53
2021/06/26 13:58:21;;;;;;;5.33;1.80;;;;;;;;;;5015878;28;20022;-53
2021/06/26 14:00:48;;;;;;;5.47;2.17;;;;;;;;;;5015739;28;20108;-53
2021/06/26 14:03:15;;;;;;;3.40;2.27;;;;;;;;;;5015633;28;20034;-53
2021/06/26 14:05:42;;;;;;;7.27;2.53;;;;;;;;;;5014490;28;20037;-53
2021/06/26 14:08:10;;;;;;;5.20;2.70;;;;;;;;;;5015556;28;20026;-53
2021/06/26 14:10:37;;;;;;;6.93;2.60;;;;;;;;;;5015489;28;20030;-53
2021/06/26 14:13:05;;;;;;;3.13;1.80;;;;;;;;;;5015490;28;20025;-53
2021/06/26 14:15:32;;;;;;;5.33;1.97;;;;;;;;;;5015530;28;20022;-53
2021/06/26 14:17:59;;;;;;;5.90;1.43;;;;;;;;;;5015504;28;20022;-53
2021/06/26 14:20:26;;;;;;;4.57;1.43;;;;;;;;;;5015347;28;20029;-53
2021/06/26 14:22:57;;;;;;;6.37;1.67;;;;;;;;;;5015206;28;20046;-54
2021/06/26 14:25:31;;;;;;;5.37;2.00;;;;;;;;;;5015306;28;20220;-54
2021/06/26 14:27:58;;;;;;;3.05;1.40;;;;;;;;;;5015163;28;20053;-54
2021/06/26 14:30:25;;;;;;;3.63;1.50;;;;;;;;;;5015329;28;20176;-54
2021/06/26 14:32:52;;;;;;;6.90;1.47;;;;;;;;;;5015251;28;20026;-53
2021/06/26 14:35:19;;;;;;;6.10;2.00;;;;;;;;;;5015201;28;20524;-54
2021/06/26 14:37:47;;;;;;;9.93;2.47;;;;;;;;;;5014961;28;20065;-54
2021/06/26 14:40:15;;;;;;;5.80;1.97;;;;;;;;;;5014971;28;20022;-54
2021/06/26 14:42:45;;;;;;;3.57;1.80;;;;;;;;;;5014884;28;20026;-54
2021/06/26 14:45:13;;;;;;;4.33;2.00;;;;;;;;;;5015002;28;20057;-54
2021/06/26 14:47:40;;;;;;;7.53;2.87;;;;;;;;;;5014792;28;20030;-54